sensor_id;sensor_type;location;lat;lon;timestamp;P1;durP1;ratioP1;P2;durP2;ratioP2
25207;SDS011;13153;52.316;21.166;2023-04-08T00:01:07;12.68;;;8.77;;
25207;SDS011;13153;52.316;21.166;2023-04-08T00:03:33;12.15;;;8.93;;
25207;SDS011;13153;52.316;21.166;2023-04-08T00:05:59;11.07;;;8.35;;
25207;SDS011;13153;52.316;21.166;2023-04-08T00:08:26;11.93;;;8.20;;
25207;SDS011;13153;52.316;21.166;2023-04-08T00:10:52;12.85;;;8.80;;
25207;SDS011;13153;52.316;21.166;2023-04-08T00:13:18;11.82;;;8.52;;
25207;SDS011;13153;52.316;21.166;2023-04-08T00:15:44;12.07;;;8.20;;
25207;SDS011;13153;52.316;21.166;2023-04-08T00:18:10;13.00;;;9.27;;
25207;SDS011;13153;52.316;21.166;2023-04-08T00:20:37;11.90;;;8.27;;
25207;SDS011;13153;52.316;21.166;2023-04-08T00:23:03;14.60;;;9.20;;
25207;SDS011;13153;52.316;21.166;2023-04-08T00:25:29;13.65;;;8.38;;
25207;SDS011;13153;52.316;21.166;2023-04-08T00:27:55;11.88;;;8.52;;
25207;SDS011;13153;52.316;21.166;2023-04-08T00:30:21;11.02;;;7.78;;
25207;SDS011;13153;52.316;21.166;2023-04-08T00:32:46;12.40;;;8.57;;
25207;SDS011;13153;52.316;21.166;2023-04-08T00:35:12;12.70;;;8.00;;
25207;SDS011;13153;52.316;21.166;2023-04-08T00:37:39;12.55;;;8.57;;
25207;SDS011;13153;52.316;21.166;2023-04-08T00:40:05;13.75;;;8.38;;
25207;SDS011;13153;52.316;21.166;2023-04-08T00:42:32;14.25;;;9.50;;
25207;SDS011;13153;52.316;21.166;2023-04-08T00:44:57;12.70;;;9.05;;
25207;SDS011;13153;52.316;21.166;2023-04-08T00:47:23;14.90;;;9.23;;
25207;SDS011;13153;52.316;21.166;2023-04-08T00:49:50;15.73;;;9.18;;
25207;SDS011;13153;52.316;21.166;2023-04-08T00:52:16;12.88;;;8.88;;
25207;SDS011;13153;52.316;21.166;2023-04-08T00:54:42;12.60;;;8.70;;
25207;SDS011;13153;52.316;21.166;2023-04-08T00:57:07;14.38;;;9.50;;
25207;SDS011;13153;52.316;21.166;2023-04-08T00:59:33;14.30;;;9.00;;
25207;SDS011;13153;52.316;21.166;2023-04-08T01:02:06;17.02;;;10.93;;
25207;SDS011;13153;52.316;21.166;2023-04-08T01:08:02;14.98;;;9.77;;
25207;SDS011;13153;52.316;21.166;2023-04-08T01:10:34;12.60;;;9.38;;
25207;SDS011;13153;52.316;21.166;2023-04-08T01:13:04;13.48;;;9.48;;
25207;SDS011;13153;52.316;21.166;2023-04-08T01:15:36;13.93;;;9.75;;
25207;SDS011;13153;52.316;21.166;2023-04-08T01:18:09;14.80;;;9.30;;
25207;SDS011;13153;52.316;21.166;2023-04-08T01:20:38;15.65;;;10.02;;
25207;SDS011;13153;52.316;21.166;2023-04-08T01:26:01;13.75;;;9.88;;
25207;SDS011;13153;52.316;21.166;2023-04-08T01:28:27;13.77;;;9.60;;
25207;SDS011;13153;52.316;21.166;2023-04-08T01:30:55;15.55;;;10.25;;
25207;SDS011;13153;52.316;21.166;2023-04-08T01:33:24;14.45;;;10.38;;
25207;SDS011;13153;52.316;21.166;2023-04-08T01:35:54;15.18;;;10.15;;
25207;SDS011;13153;52.316;21.166;2023-04-08T01:38:22;13.43;;;9.40;;
25207;SDS011;13153;52.316;21.166;2023-04-08T01:40:50;14.43;;;9.80;;
25207;SDS011;13153;52.316;21.166;2023-04-08T01:43:19;15.57;;;10.23;;
25207;SDS011;13153;52.316;21.166;2023-04-08T01:45:46;15.40;;;10.45;;
25207;SDS011;13153;52.316;21.166;2023-04-08T01:48:13;17.75;;;11.32;;
25207;SDS011;13153;52.316;21.166;2023-04-08T01:50:43;14.80;;;10.32;;
25207;SDS011;13153;52.316;21.166;2023-04-08T01:53:10;14.40;;;9.80;;
25207;SDS011;13153;52.316;21.166;2023-04-08T01:55:40;16.65;;;10.85;;
25207;SDS011;13153;52.316;21.166;2023-04-08T01:58:08;15.77;;;10.68;;
25207;SDS011;13153;52.316;21.166;2023-04-08T02:00:39;17.40;;;11.15;;
25207;SDS011;13153;52.316;21.166;2023-04-08T02:03:07;18.85;;;12.07;;
25207;SDS011;13153;52.316;21.166;2023-04-08T02:05:36;18.33;;;12.30;;
25207;SDS011;13153;52.316;21.166;2023-04-08T02:08:03;18.25;;;11.60;;
25207;SDS011;13153;52.316;21.166;2023-04-08T02:10:29;16.98;;;11.88;;
25207;SDS011;13153;52.316;21.166;2023-04-08T02:12:55;18.02;;;12.02;;
25207;SDS011;13153;52.316;21.166;2023-04-08T02:15:21;20.38;;;12.23;;
25207;SDS011;13153;52.316;21.166;2023-04-08T02:17:54;21.02;;;13.57;;
25207;SDS011;13153;52.316;21.166;2023-04-08T02:20:41;18.13;;;12.30;;
25207;SDS011;13153;52.316;21.166;2023-04-08T02:25:51;18.05;;;12.32;;
25207;SDS011;13153;52.316;21.166;2023-04-08T02:28:20;20.95;;;12.25;;
25207;SDS011;13153;52.316;21.166;2023-04-08T02:30:50;19.42;;;11.20;;
25207;SDS011;13153;52.316;21.166;2023-04-08T02:33:20;19.30;;;11.75;;
25207;SDS011;13153;52.316;21.166;2023-04-08T02:35:47;19.10;;;12.55;;
25207;SDS011;13153;52.316;21.166;2023-04-08T02:38:18;19.63;;;12.40;;
25207;SDS011;13153;52.316;21.166;2023-04-08T02:40:44;21.70;;;13.25;;
25207;SDS011;13153;52.316;21.166;2023-04-08T02:43:13;21.05;;;13.65;;
25207;SDS011;13153;52.316;21.166;2023-04-08T02:45:42;21.88;;;13.73;;
25207;SDS011;13153;52.316;21.166;2023-04-08T02:48:08;22.33;;;14.23;;
25207;SDS011;13153;52.316;21.166;2023-04-08T02:50:35;21.13;;;13.30;;
25207;SDS011;13153;52.316;21.166;2023-04-08T02:53:01;21.52;;;13.20;;
25207;SDS011;13153;52.316;21.166;2023-04-08T02:55:27;20.75;;;12.85;;
25207;SDS011;13153;52.316;21.166;2023-04-08T02:57:53;21.48;;;13.13;;
25207;SDS011;13153;52.316;21.166;2023-04-08T03:00:19;21.42;;;14.07;;
25207;SDS011;13153;52.316;21.166;2023-04-08T03:02:45;19.50;;;13.38;;
25207;SDS011;13153;52.316;21.166;2023-04-08T03:05:10;23.77;;;14.38;;
25207;SDS011;13153;52.316;21.166;2023-04-08T03:07:36;21.50;;;13.95;;
25207;SDS011;13153;52.316;21.166;2023-04-08T03:10:03;22.45;;;13.90;;
25207;SDS011;13153;52.316;21.166;2023-04-08T03:12:30;23.00;;;14.98;;
25207;SDS011;13153;52.316;21.166;2023-04-08T03:14:56;22.98;;;15.05;;
25207;SDS011;13153;52.316;21.166;2023-04-08T03:17:22;22.98;;;14.45;;
25207;SDS011;13153;52.316;21.166;2023-04-08T03:19:48;22.23;;;14.95;;
25207;SDS011;13153;52.316;21.166;2023-04-08T03:22:14;23.63;;;15.52;;
25207;SDS011;13153;52.316;21.166;2023-04-08T03:24:40;25.77;;;16.30;;
25207;SDS011;13153;52.316;21.166;2023-04-08T03:27:06;25.33;;;15.35;;
25207;SDS011;13153;52.316;21.166;2023-04-08T03:29:32;27.40;;;16.42;;
25207;SDS011;13153;52.316;21.166;2023-04-08T03:31:58;26.92;;;15.63;;
25207;SDS011;13153;52.316;21.166;2023-04-08T03:34:24;28.30;;;16.65;;
25207;SDS011;13153;52.316;21.166;2023-04-08T03:36:50;26.67;;;16.33;;
25207;SDS011;13153;52.316;21.166;2023-04-08T03:39:15;30.42;;;17.20;;
25207;SDS011;13153;52.316;21.166;2023-04-08T03:41:41;29.38;;;16.98;;
25207;SDS011;13153;52.316;21.166;2023-04-08T03:44:07;24.70;;;15.85;;
25207;SDS011;13153;52.316;21.166;2023-04-08T03:46:33;25.65;;;15.73;;
25207;SDS011;13153;52.316;21.166;2023-04-08T03:48:58;25.98;;;15.10;;
25207;SDS011;13153;52.316;21.166;2023-04-08T03:51:24;27.48;;;15.80;;
25207;SDS011;13153;52.316;21.166;2023-04-08T03:53:51;28.23;;;17.08;;
25207;SDS011;13153;52.316;21.166;2023-04-08T03:56:17;27.38;;;15.77;;
25207;SDS011;13153;52.316;21.166;2023-04-08T03:58:42;30.08;;;16.75;;
25207;SDS011;13153;52.316;21.166;2023-04-08T04:01:08;27.98;;;16.20;;
25207;SDS011;13153;52.316;21.166;2023-04-08T04:03:34;32.53;;;16.80;;
25207;SDS011;13153;52.316;21.166;2023-04-08T04:05:59;29.73;;;16.63;;
25207;SDS011;13153;52.316;21.166;2023-04-08T04:08:25;31.63;;;16.60;;
25207;SDS011;13153;52.316;21.166;2023-04-08T04:10:51;28.05;;;16.92;;
25207;SDS011;13153;52.316;21.166;2023-04-08T04:13:17;32.08;;;16.20;;
25207;SDS011;13153;52.316;21.166;2023-04-08T04:15:43;28.33;;;17.02;;
25207;SDS011;13153;52.316;21.166;2023-04-08T04:18:09;26.83;;;15.63;;
25207;SDS011;13153;52.316;21.166;2023-04-08T04:20:38;28.58;;;16.83;;
25207;SDS011;13153;52.316;21.166;2023-04-08T04:23:06;27.73;;;16.38;;
25207;SDS011;13153;52.316;21.166;2023-04-08T04:25:32;28.30;;;16.02;;
25207;SDS011;13153;52.316;21.166;2023-04-08T04:27:58;29.92;;;17.35;;
25207;SDS011;13153;52.316;21.166;2023-04-08T04:30:25;30.63;;;17.45;;
25207;SDS011;13153;52.316;21.166;2023-04-08T04:32:51;26.75;;;16.45;;
25207;SDS011;13153;52.316;21.166;2023-04-08T04:35:17;25.50;;;15.82;;
25207;SDS011;13153;52.316;21.166;2023-04-08T04:37:43;32.53;;;16.85;;
25207;SDS011;13153;52.316;21.166;2023-04-08T04:40:09;29.13;;;16.67;;
25207;SDS011;13153;52.316;21.166;2023-04-08T04:42:35;31.58;;;17.42;;
25207;SDS011;13153;52.316;21.166;2023-04-08T04:45:01;25.88;;;16.15;;
25207;SDS011;13153;52.316;21.166;2023-04-08T04:47:28;25.80;;;16.05;;
25207;SDS011;13153;52.316;21.166;2023-04-08T04:49:56;32.17;;;16.60;;
25207;SDS011;13153;52.316;21.166;2023-04-08T04:52:22;29.98;;;17.90;;
25207;SDS011;13153;52.316;21.166;2023-04-08T04:54:48;30.15;;;17.15;;
25207;SDS011;13153;52.316;21.166;2023-04-08T04:57:13;26.60;;;17.42;;
25207;SDS011;13153;52.316;21.166;2023-04-08T04:59:39;29.15;;;18.20;;
25207;SDS011;13153;52.316;21.166;2023-04-08T05:02:05;28.13;;;16.70;;
25207;SDS011;13153;52.316;21.166;2023-04-08T05:04:30;32.47;;;16.75;;
25207;SDS011;13153;52.316;21.166;2023-04-08T05:06:58;26.10;;;15.98;;
25207;SDS011;13153;52.316;21.166;2023-04-08T05:09:24;28.63;;;15.32;;
25207;SDS011;13153;52.316;21.166;2023-04-08T05:11:50;24.05;;;15.77;;
25207;SDS011;13153;52.316;21.166;2023-04-08T05:14:16;39.58;;;23.85;;
25207;SDS011;13153;52.316;21.166;2023-04-08T05:16:42;24.85;;;15.57;;
25207;SDS011;13153;52.316;21.166;2023-04-08T05:19:07;23.25;;;14.85;;
25207;SDS011;13153;52.316;21.166;2023-04-08T05:21:33;24.88;;;15.77;;
25207;SDS011;13153;52.316;21.166;2023-04-08T05:23:59;25.00;;;16.10;;
25207;SDS011;13153;52.316;21.166;2023-04-08T05:26:24;26.27;;;15.48;;
25207;SDS011;13153;52.316;21.166;2023-04-08T05:28:50;23.70;;;15.32;;
25207;SDS011;13153;52.316;21.166;2023-04-08T05:31:16;25.40;;;16.80;;
25207;SDS011;13153;52.316;21.166;2023-04-08T05:33:43;25.92;;;17.00;;
25207;SDS011;13153;52.316;21.166;2023-04-08T05:36:10;26.60;;;17.13;;
25207;SDS011;13153;52.316;21.166;2023-04-08T05:38:37;29.25;;;17.17;;
25207;SDS011;13153;52.316;21.166;2023-04-08T05:41:03;29.33;;;16.95;;
25207;SDS011;13153;52.316;21.166;2023-04-08T05:43:29;25.77;;;15.68;;
25207;SDS011;13153;52.316;21.166;2023-04-08T05:45:57;24.02;;;15.18;;
25207;SDS011;13153;52.316;21.166;2023-04-08T05:48:23;21.90;;;14.32;;
25207;SDS011;13153;52.316;21.166;2023-04-08T05:50:48;21.38;;;13.88;;
25207;SDS011;13153;52.316;21.166;2023-04-08T05:53:14;21.55;;;13.57;;
25207;SDS011;13153;52.316;21.166;2023-04-08T05:55:40;19.75;;;13.60;;
25207;SDS011;13153;52.316;21.166;2023-04-08T05:58:06;19.33;;;13.82;;
25207;SDS011;13153;52.316;21.166;2023-04-08T06:00:32;18.67;;;12.73;;
25207;SDS011;13153;52.316;21.166;2023-04-08T06:02:58;16.50;;;12.05;;
25207;SDS011;13153;52.316;21.166;2023-04-08T06:05:24;19.48;;;12.93;;
25207;SDS011;13153;52.316;21.166;2023-04-08T06:07:50;18.42;;;12.50;;
25207;SDS011;13153;52.316;21.166;2023-04-08T06:10:16;17.13;;;11.93;;
25207;SDS011;13153;52.316;21.166;2023-04-08T06:12:42;17.90;;;12.32;;
25207;SDS011;13153;52.316;21.166;2023-04-08T06:15:08;18.05;;;11.77;;
25207;SDS011;13153;52.316;21.166;2023-04-08T06:17:37;17.48;;;12.73;;
25207;SDS011;13153;52.316;21.166;2023-04-08T06:20:06;14.65;;;10.63;;
25207;SDS011;13153;52.316;21.166;2023-04-08T06:22:35;15.57;;;10.93;;
25207;SDS011;13153;52.316;21.166;2023-04-08T06:25:01;15.48;;;10.77;;
25207;SDS011;13153;52.316;21.166;2023-04-08T06:27:28;15.20;;;10.85;;
25207;SDS011;13153;52.316;21.166;2023-04-08T06:29:53;15.45;;;10.35;;
25207;SDS011;13153;52.316;21.166;2023-04-08T06:32:20;17.92;;;12.13;;
25207;SDS011;13153;52.316;21.166;2023-04-08T06:34:46;14.25;;;9.65;;
25207;SDS011;13153;52.316;21.166;2023-04-08T06:37:13;13.48;;;10.48;;
25207;SDS011;13153;52.316;21.166;2023-04-08T06:39:39;12.45;;;9.38;;
25207;SDS011;13153;52.316;21.166;2023-04-08T06:42:05;12.63;;;9.10;;
25207;SDS011;13153;52.316;21.166;2023-04-08T06:44:31;11.93;;;8.75;;
25207;SDS011;13153;52.316;21.166;2023-04-08T06:46:57;11.73;;;8.57;;
25207;SDS011;13153;52.316;21.166;2023-04-08T06:49:22;12.82;;;8.63;;
25207;SDS011;13153;52.316;21.166;2023-04-08T06:51:48;12.23;;;8.13;;
25207;SDS011;13153;52.316;21.166;2023-04-08T06:54:14;11.40;;;8.32;;
25207;SDS011;13153;52.316;21.166;2023-04-08T06:56:40;9.20;;;7.55;;
25207;SDS011;13153;52.316;21.166;2023-04-08T06:59:06;9.05;;;7.05;;
25207;SDS011;13153;52.316;21.166;2023-04-08T07:01:32;11.20;;;7.75;;
25207;SDS011;13153;52.316;21.166;2023-04-08T07:03:57;10.90;;;7.95;;
25207;SDS011;13153;52.316;21.166;2023-04-08T07:06:23;12.38;;;8.15;;
25207;SDS011;13153;52.316;21.166;2023-04-08T07:08:49;9.90;;;7.63;;
25207;SDS011;13153;52.316;21.166;2023-04-08T07:11:15;10.57;;;7.78;;
25207;SDS011;13153;52.316;21.166;2023-04-08T07:13:41;10.45;;;7.28;;
25207;SDS011;13153;52.316;21.166;2023-04-08T07:16:07;10.20;;;6.95;;
25207;SDS011;13153;52.316;21.166;2023-04-08T07:18:33;8.90;;;6.90;;
25207;SDS011;13153;52.316;21.166;2023-04-08T07:20:59;10.73;;;7.72;;
25207;SDS011;13153;52.316;21.166;2023-04-08T07:23:25;11.30;;;8.32;;
25207;SDS011;13153;52.316;21.166;2023-04-08T07:25:52;8.65;;;7.10;;
25207;SDS011;13153;52.316;21.166;2023-04-08T07:28:18;8.25;;;6.82;;
25207;SDS011;13153;52.316;21.166;2023-04-08T07:30:45;7.90;;;6.40;;
25207;SDS011;13153;52.316;21.166;2023-04-08T07:33:11;6.55;;;5.55;;
25207;SDS011;13153;52.316;21.166;2023-04-08T07:35:37;7.95;;;6.35;;
25207;SDS011;13153;52.316;21.166;2023-04-08T07:38:02;8.45;;;6.55;;
25207;SDS011;13153;52.316;21.166;2023-04-08T07:40:28;7.22;;;6.35;;
25207;SDS011;13153;52.316;21.166;2023-04-08T07:42:54;8.63;;;6.25;;
25207;SDS011;13153;52.316;21.166;2023-04-08T07:45:20;10.55;;;6.63;;
25207;SDS011;13153;52.316;21.166;2023-04-08T07:47:46;9.18;;;6.78;;
25207;SDS011;13153;52.316;21.166;2023-04-08T07:50:12;10.27;;;7.53;;
25207;SDS011;13153;52.316;21.166;2023-04-08T07:52:38;9.20;;;7.20;;
25207;SDS011;13153;52.316;21.166;2023-04-08T07:55:04;9.18;;;6.95;;
25207;SDS011;13153;52.316;21.166;2023-04-08T07:57:30;11.48;;;7.50;;
25207;SDS011;13153;52.316;21.166;2023-04-08T07:59:56;8.63;;;7.03;;
25207;SDS011;13153;52.316;21.166;2023-04-08T08:02:23;8.65;;;7.20;;
25207;SDS011;13153;52.316;21.166;2023-04-08T08:04:48;8.35;;;6.57;;
25207;SDS011;13153;52.316;21.166;2023-04-08T08:07:14;9.20;;;6.72;;
25207;SDS011;13153;52.316;21.166;2023-04-08T08:09:40;15.02;;;7.70;;
25207;SDS011;13153;52.316;21.166;2023-04-08T08:12:06;9.02;;;6.93;;
25207;SDS011;13153;52.316;21.166;2023-04-08T08:14:31;7.72;;;6.55;;
25207;SDS011;13153;52.316;21.166;2023-04-08T08:16:57;9.45;;;6.80;;
25207;SDS011;13153;52.316;21.166;2023-04-08T08:19:23;9.18;;;7.10;;
25207;SDS011;13153;52.316;21.166;2023-04-08T08:21:49;10.30;;;7.32;;
25207;SDS011;13153;52.316;21.166;2023-04-08T08:24:15;10.98;;;8.25;;
25207;SDS011;13153;52.316;21.166;2023-04-08T08:26:41;9.23;;;7.30;;
25207;SDS011;13153;52.316;21.166;2023-04-08T08:29:09;8.63;;;7.13;;
25207;SDS011;13153;52.316;21.166;2023-04-08T08:31:35;9.75;;;7.50;;
25207;SDS011;13153;52.316;21.166;2023-04-08T08:34:01;8.02;;;7.18;;
25207;SDS011;13153;52.316;21.166;2023-04-08T08:36:27;8.10;;;7.03;;
25207;SDS011;13153;52.316;21.166;2023-04-08T08:38:53;9.95;;;7.40;;
25207;SDS011;13153;52.316;21.166;2023-04-08T08:41:19;8.38;;;6.57;;
25207;SDS011;13153;52.316;21.166;2023-04-08T08:43:45;10.73;;;7.00;;
25207;SDS011;13153;52.316;21.166;2023-04-08T08:46:12;7.85;;;6.50;;
25207;SDS011;13153;52.316;21.166;2023-04-08T08:48:42;8.55;;;7.00;;
25207;SDS011;13153;52.316;21.166;2023-04-08T08:51:09;9.10;;;6.93;;
25207;SDS011;13153;52.316;21.166;2023-04-08T08:53:36;9.70;;;6.65;;
25207;SDS011;13153;52.316;21.166;2023-04-08T08:56:03;8.95;;;7.30;;
25207;SDS011;13153;52.316;21.166;2023-04-08T08:58:33;8.25;;;6.82;;
25207;SDS011;13153;52.316;21.166;2023-04-08T09:00:59;9.30;;;7.30;;
25207;SDS011;13153;52.316;21.166;2023-04-08T09:03:26;8.25;;;6.50;;
25207;SDS011;13153;52.316;21.166;2023-04-08T09:05:53;9.32;;;7.50;;
25207;SDS011;13153;52.316;21.166;2023-04-08T09:08:26;9.82;;;6.95;;
25207;SDS011;13153;52.316;21.166;2023-04-08T09:11:15;8.15;;;6.72;;
25207;SDS011;13153;52.316;21.166;2023-04-08T09:13:42;8.60;;;7.35;;
25207;SDS011;13153;52.316;21.166;2023-04-08T09:16:13;10.90;;;7.22;;
25207;SDS011;13153;52.316;21.166;2023-04-08T09:18:45;9.35;;;7.35;;
25207;SDS011;13153;52.316;21.166;2023-04-08T09:21:13;9.27;;;7.03;;
25207;SDS011;13153;52.316;21.166;2023-04-08T09:26:12;8.15;;;6.55;;
25207;SDS011;13153;52.316;21.166;2023-04-08T09:28:40;9.13;;;6.88;;
25207;SDS011;13153;52.316;21.166;2023-04-08T09:31:18;8.88;;;6.72;;
25207;SDS011;13153;52.316;21.166;2023-04-08T09:33:49;9.85;;;7.25;;
25207;SDS011;13153;52.316;21.166;2023-04-08T09:36:18;9.63;;;7.47;;
25207;SDS011;13153;52.316;21.166;2023-04-08T09:38:44;9.57;;;7.95;;
25207;SDS011;13153;52.316;21.166;2023-04-08T09:41:17;8.55;;;7.10;;
25207;SDS011;13153;52.316;21.166;2023-04-08T09:43:52;9.80;;;8.07;;
25207;SDS011;13153;52.316;21.166;2023-04-08T09:49:12;9.43;;;7.07;;
25207;SDS011;13153;52.316;21.166;2023-04-08T09:52:14;8.13;;;6.97;;
25207;SDS011;13153;52.316;21.166;2023-04-08T09:55:01;12.27;;;7.25;;
25207;SDS011;13153;52.316;21.166;2023-04-08T09:57:33;9.75;;;7.55;;
25207;SDS011;13153;52.316;21.166;2023-04-08T10:00:10;9.65;;;7.60;;
25207;SDS011;13153;52.316;21.166;2023-04-08T10:05:30;10.70;;;7.90;;
25207;SDS011;13153;52.316;21.166;2023-04-08T10:08:00;9.35;;;7.88;;
25207;SDS011;13153;52.316;21.166;2023-04-08T10:10:25;9.43;;;6.93;;
25207;SDS011;13153;52.316;21.166;2023-04-08T10:12:51;8.45;;;6.72;;
25207;SDS011;13153;52.316;21.166;2023-04-08T10:15:25;9.75;;;7.38;;
25207;SDS011;13153;52.316;21.166;2023-04-08T10:18:29;8.38;;;7.20;;
25207;SDS011;13153;52.316;21.166;2023-04-08T10:20:47;12.45;;;7.82;;
25207;SDS011;13153;52.316;21.166;2023-04-08T10:23:14;10.60;;;8.35;;
25207;SDS011;13153;52.316;21.166;2023-04-08T10:25:42;9.05;;;7.30;;
25207;SDS011;13153;52.316;21.166;2023-04-08T10:30:45;10.82;;;7.72;;
25207;SDS011;13153;52.316;21.166;2023-04-08T10:33:20;8.43;;;6.97;;
25207;SDS011;13153;52.316;21.166;2023-04-08T10:38:36;10.07;;;6.93;;
25207;SDS011;13153;52.316;21.166;2023-04-08T10:41:03;8.25;;;7.07;;
25207;SDS011;13153;52.316;21.166;2023-04-08T10:43:32;8.73;;;6.82;;
25207;SDS011;13153;52.316;21.166;2023-04-08T10:45:59;13.93;;;8.70;;
25207;SDS011;13153;52.316;21.166;2023-04-08T10:48:25;13.30;;;8.00;;
25207;SDS011;13153;52.316;21.166;2023-04-08T10:50:58;10.82;;;7.38;;
25207;SDS011;13153;52.316;21.166;2023-04-08T10:53:31;10.88;;;7.72;;
25207;SDS011;13153;52.316;21.166;2023-04-08T10:56:08;11.70;;;7.38;;
25207;SDS011;13153;52.316;21.166;2023-04-08T10:58:53;21.25;;;15.95;;
25207;SDS011;13153;52.316;21.166;2023-04-08T11:01:20;9.35;;;7.78;;
25207;SDS011;13153;52.316;21.166;2023-04-08T11:03:47;9.52;;;8.15;;
25207;SDS011;13153;52.316;21.166;2023-04-08T11:06:13;8.68;;;6.55;;
25207;SDS011;13153;52.316;21.166;2023-04-08T11:08:44;10.27;;;7.30;;
25207;SDS011;13153;52.316;21.166;2023-04-08T11:11:11;7.30;;;6.47;;
25207;SDS011;13153;52.316;21.166;2023-04-08T11:13:41;8.35;;;6.30;;
25207;SDS011;13153;52.316;21.166;2023-04-08T11:16:09;7.07;;;6.10;;
25207;SDS011;13153;52.316;21.166;2023-04-08T11:18:36;7.05;;;5.60;;
25207;SDS011;13153;52.316;21.166;2023-04-08T11:21:13;10.88;;;6.18;;
25207;SDS011;13153;52.316;21.166;2023-04-08T11:23:41;9.25;;;6.60;;
25207;SDS011;13153;52.316;21.166;2023-04-08T11:26:07;7.47;;;6.55;;
25207;SDS011;13153;52.316;21.166;2023-04-08T11:28:33;8.60;;;6.97;;
25207;SDS011;13153;52.316;21.166;2023-04-08T11:31:00;8.27;;;6.78;;
25207;SDS011;13153;52.316;21.166;2023-04-08T11:33:31;9.05;;;6.97;;
25207;SDS011;13153;52.316;21.166;2023-04-08T11:35:59;10.23;;;7.40;;
25207;SDS011;13153;52.316;21.166;2023-04-08T11:38:29;8.85;;;6.43;;
25207;SDS011;13153;52.316;21.166;2023-04-08T11:40:56;10.13;;;6.57;;
25207;SDS011;13153;52.316;21.166;2023-04-08T11:43:24;7.05;;;6.00;;
25207;SDS011;13153;52.316;21.166;2023-04-08T11:45:50;7.85;;;5.82;;
25207;SDS011;13153;52.316;21.166;2023-04-08T11:48:16;8.52;;;6.25;;
25207;SDS011;13153;52.316;21.166;2023-04-08T11:50:43;7.40;;;5.80;;
25207;SDS011;13153;52.316;21.166;2023-04-08T11:53:16;8.50;;;5.78;;
25207;SDS011;13153;52.316;21.166;2023-04-08T11:55:49;7.85;;;5.95;;
25207;SDS011;13153;52.316;21.166;2023-04-08T11:58:15;7.63;;;5.32;;
25207;SDS011;13153;52.316;21.166;2023-04-08T12:00:41;7.60;;;6.30;;
25207;SDS011;13153;52.316;21.166;2023-04-08T12:03:07;7.78;;;6.35;;
25207;SDS011;13153;52.316;21.166;2023-04-08T12:05:34;7.78;;;5.50;;
25207;SDS011;13153;52.316;21.166;2023-04-08T12:08:00;8.02;;;5.60;;
25207;SDS011;13153;52.316;21.166;2023-04-08T12:10:27;5.97;;;4.95;;
25207;SDS011;13153;52.316;21.166;2023-04-08T12:12:53;6.30;;;5.10;;
25207;SDS011;13153;52.316;21.166;2023-04-08T12:15:19;6.25;;;5.55;;
25207;SDS011;13153;52.316;21.166;2023-04-08T12:17:45;7.55;;;5.90;;
25207;SDS011;13153;52.316;21.166;2023-04-08T12:20:11;8.10;;;6.18;;
25207;SDS011;13153;52.316;21.166;2023-04-08T12:22:37;9.10;;;6.35;;
25207;SDS011;13153;52.316;21.166;2023-04-08T12:25:04;7.05;;;5.88;;
25207;SDS011;13153;52.316;21.166;2023-04-08T12:27:30;7.35;;;5.45;;
25207;SDS011;13153;52.316;21.166;2023-04-08T12:30:00;7.72;;;5.70;;
25207;SDS011;13153;52.316;21.166;2023-04-08T12:32:27;8.32;;;5.63;;
25207;SDS011;13153;52.316;21.166;2023-04-08T12:34:53;8.13;;;5.60;;
25207;SDS011;13153;52.316;21.166;2023-04-08T12:37:20;6.75;;;5.43;;
25207;SDS011;13153;52.316;21.166;2023-04-08T12:39:45;11.52;;;7.70;;
25207;SDS011;13153;52.316;21.166;2023-04-08T12:42:11;7.80;;;5.95;;
25207;SDS011;13153;52.316;21.166;2023-04-08T12:44:38;6.90;;;5.75;;
25207;SDS011;13153;52.316;21.166;2023-04-08T12:47:05;7.63;;;5.60;;
25207;SDS011;13153;52.316;21.166;2023-04-08T12:49:30;8.45;;;6.60;;
25207;SDS011;13153;52.316;21.166;2023-04-08T12:51:56;7.05;;;5.60;;
25207;SDS011;13153;52.316;21.166;2023-04-08T12:54:22;5.88;;;5.03;;
25207;SDS011;13153;52.316;21.166;2023-04-08T12:56:48;7.80;;;5.65;;
25207;SDS011;13153;52.316;21.166;2023-04-08T12:59:13;6.50;;;5.25;;
25207;SDS011;13153;52.316;21.166;2023-04-08T13:01:39;7.50;;;5.45;;
25207;SDS011;13153;52.316;21.166;2023-04-08T13:04:06;6.95;;;5.70;;
25207;SDS011;13153;52.316;21.166;2023-04-08T13:06:31;6.65;;;5.55;;
25207;SDS011;13153;52.316;21.166;2023-04-08T13:08:57;7.03;;;5.57;;
25207;SDS011;13153;52.316;21.166;2023-04-08T13:11:23;7.60;;;5.35;;
25207;SDS011;13153;52.316;21.166;2023-04-08T13:13:49;6.75;;;5.63;;
25207;SDS011;13153;52.316;21.166;2023-04-08T13:16:15;7.10;;;5.93;;
25207;SDS011;13153;52.316;21.166;2023-04-08T13:18:41;11.13;;;8.38;;
25207;SDS011;13153;52.316;21.166;2023-04-08T13:21:07;7.32;;;6.32;;
25207;SDS011;13153;52.316;21.166;2023-04-08T13:23:33;6.30;;;5.57;;
25207;SDS011;13153;52.316;21.166;2023-04-08T13:25:59;6.70;;;5.90;;
25207;SDS011;13153;52.316;21.166;2023-04-08T13:28:26;7.15;;;5.57;;
25207;SDS011;13153;52.316;21.166;2023-04-08T13:30:52;7.80;;;6.05;;
25207;SDS011;13153;52.316;21.166;2023-04-08T13:33:18;7.32;;;5.90;;
25207;SDS011;13153;52.316;21.166;2023-04-08T13:35:44;9.38;;;6.50;;
25207;SDS011;13153;52.316;21.166;2023-04-08T13:38:10;9.27;;;6.15;;
25207;SDS011;13153;52.316;21.166;2023-04-08T13:40:36;6.95;;;6.10;;
25207;SDS011;13153;52.316;21.166;2023-04-08T13:43:02;10.75;;;6.88;;
25207;SDS011;13153;52.316;21.166;2023-04-08T13:45:28;8.75;;;6.57;;
25207;SDS011;13153;52.316;21.166;2023-04-08T13:47:54;10.70;;;7.07;;
25207;SDS011;13153;52.316;21.166;2023-04-08T13:50:20;10.40;;;5.97;;
25207;SDS011;13153;52.316;21.166;2023-04-08T13:52:46;8.18;;;6.07;;
25207;SDS011;13153;52.316;21.166;2023-04-08T13:55:12;10.15;;;6.10;;
25207;SDS011;13153;52.316;21.166;2023-04-08T13:57:38;9.80;;;6.18;;
25207;SDS011;13153;52.316;21.166;2023-04-08T14:00:03;10.35;;;6.88;;
25207;SDS011;13153;52.316;21.166;2023-04-08T14:02:30;10.15;;;6.38;;
25207;SDS011;13153;52.316;21.166;2023-04-08T14:04:56;11.45;;;6.70;;
25207;SDS011;13153;52.316;21.166;2023-04-08T14:07:22;14.32;;;7.20;;
25207;SDS011;13153;52.316;21.166;2023-04-08T14:09:48;9.70;;;6.55;;
25207;SDS011;13153;52.316;21.166;2023-04-08T14:12:14;7.25;;;5.88;;
25207;SDS011;13153;52.316;21.166;2023-04-08T14:14:40;6.93;;;5.40;;
25207;SDS011;13153;52.316;21.166;2023-04-08T14:17:05;6.53;;;5.30;;
25207;SDS011;13153;52.316;21.166;2023-04-08T14:19:31;7.03;;;5.70;;
25207;SDS011;13153;52.316;21.166;2023-04-08T14:21:57;7.47;;;5.20;;
25207;SDS011;13153;52.316;21.166;2023-04-08T14:24:23;6.28;;;5.30;;
25207;SDS011;13153;52.316;21.166;2023-04-08T14:26:48;8.40;;;5.63;;
25207;SDS011;13153;52.316;21.166;2023-04-08T14:29:14;7.32;;;5.32;;
25207;SDS011;13153;52.316;21.166;2023-04-08T14:31:40;6.38;;;4.30;;
25207;SDS011;13153;52.316;21.166;2023-04-08T14:34:06;5.82;;;4.78;;
25207;SDS011;13153;52.316;21.166;2023-04-08T14:36:32;11.65;;;6.43;;
25207;SDS011;13153;52.316;21.166;2023-04-08T14:38:58;10.63;;;6.45;;
25207;SDS011;13153;52.316;21.166;2023-04-08T14:41:24;8.18;;;5.47;;
25207;SDS011;13153;52.316;21.166;2023-04-08T14:43:51;8.95;;;5.32;;